createdAt,value
2022-10-25T00:00:13.774Z,12.35
2022-10-25T00:05:35.674Z,12.37
2022-10-25T00:10:57.375Z,12.43
2022-10-25T00:16:22.397Z,12.53
2022-10-25T00:21:44.146Z,12.60
2022-10-25T00:27:05.932Z,12.57
2022-10-25T00:32:28.052Z,12.46
2022-10-25T00:37:50.288Z,12.35
2022-10-25T00:43:28.282Z,12.30
2022-10-25T00:49:10.654Z,12.28
2022-10-25T00:54:37.485Z,12.37
2022-10-25T01:00:01.344Z,12.34
2022-10-25T01:05:23.521Z,12.34
2022-10-25T01:10:45.552Z,12.43
2022-10-25T01:16:18.453Z,12.48
2022-10-25T01:21:44.197Z,12.45
2022-10-25T01:27:38.784Z,12.45
2022-10-25T01:33:16.418Z,12.42
2022-10-25T01:38:50.419Z,12.43
2022-10-25T01:44:30.688Z,12.28
2022-10-25T01:50:00.625Z,12.31
2022-10-25T01:55:30.327Z,12.25
2022-10-25T02:00:56.358Z,12.28
2022-10-25T02:06:33.299Z,12.27
2022-10-25T02:11:58.039Z,12.29
2022-10-25T02:17:25.133Z,12.35
2022-10-25T02:22:48.525Z,12.31
2022-10-25T02:28:12.759Z,12.31
2022-10-25T02:33:34.483Z,12.26
2022-10-25T02:38:57.376Z,12.25
2022-10-25T02:44:19.039Z,12.22
2022-10-25T02:49:40.748Z,12.34
2022-10-25T02:55:02.601Z,12.33
2022-10-25T03:00:24.365Z,12.29
2022-10-25T03:05:46.119Z,12.29
2022-10-25T03:11:08.863Z,12.35
2022-10-25T03:16:30.550Z,12.33
2022-10-25T03:21:52.222Z,12.25
2022-10-25T03:27:13.972Z,12.18
2022-10-25T03:32:36.212Z,12.23
2022-10-25T03:37:57.895Z,12.25
2022-10-25T03:43:19.662Z,12.20
2022-10-25T03:48:41.390Z,12.14
2022-10-25T03:54:03.173Z,12.18
2022-10-25T03:59:25.293Z,12.17
2022-10-25T04:04:46.956Z,12.12
2022-10-25T04:10:08.986Z,12.18
2022-10-25T04:15:30.729Z,12.19
2022-10-25T04:20:52.385Z,12.21
2022-10-25T04:26:20.337Z,12.36
2022-10-25T04:31:42.015Z,12.26
2022-10-25T04:37:03.776Z,12.28
2022-10-25T04:42:25.488Z,12.28
2022-10-25T04:47:47.250Z,12.30
2022-10-25T04:53:09.182Z,12.28
2022-10-25T04:58:31.640Z,12.27
2022-10-25T05:03:53.447Z,12.27
2022-10-25T05:09:15.124Z,12.33
2022-10-25T05:14:36.936Z,12.30
2022-10-25T05:19:58.690Z,12.24
2022-10-25T05:25:21.235Z,12.14
2022-10-25T05:30:43.997Z,12.16
2022-10-25T05:36:05.875Z,12.22
2022-10-25T05:41:30.681Z,12.35
2022-10-25T05:46:55.714Z,12.34
2022-10-25T05:52:17.397Z,12.28
2022-10-25T05:57:39.062Z,12.32
2022-10-25T06:03:01.843Z,12.28
2022-10-25T06:08:23.669Z,12.32
2022-10-25T06:13:45.931Z,12.31
2022-10-25T06:19:08.091Z,12.34
2022-10-25T06:24:29.772Z,12.30
2022-10-25T06:29:51.466Z,12.38
2022-10-25T06:35:13.270Z,12.31
2022-10-25T06:40:35.512Z,12.35
2022-10-25T06:45:57.475Z,12.41
2022-10-25T06:51:19.580Z,12.42
2022-10-25T06:56:41.380Z,12.41
2022-10-25T07:02:03.185Z,12.28
2022-10-25T07:07:24.969Z,12.19
2022-10-25T07:12:46.664Z,12.09
2022-10-25T07:18:08.361Z,12.17
2022-10-25T07:23:30.939Z,12.11
2022-10-25T07:28:54.353Z,12.18
2022-10-25T07:34:16.108Z,12.14
2022-10-25T07:39:37.786Z,12.23
2022-10-25T07:44:59.475Z,12.36
2022-10-25T07:50:21.210Z,12.38
2022-10-25T07:55:42.907Z,12.44
2022-10-25T08:01:06.938Z,12.59
2022-10-25T08:06:28.743Z,12.76
2022-10-25T08:11:50.411Z,12.85
2022-10-25T08:17:12.304Z,12.90
2022-10-25T08:22:33.963Z,13.02
2022-10-25T08:27:55.685Z,13.08
2022-10-25T08:33:17.421Z,13.19
2022-10-25T08:38:39.135Z,13.32
2022-10-25T08:44:16.060Z,13.27
2022-10-25T08:49:56.746Z,13.32
2022-10-25T08:55:41.621Z,13.37
2022-10-25T09:01:22.481Z,13.45
2022-10-25T09:07:00.528Z,13.56
2022-10-25T09:12:28.320Z,13.74
2022-10-25T09:17:52.396Z,13.73
2022-10-25T09:23:31.749Z,13.80
2022-10-25T09:29:22.467Z,13.88
2022-10-25T09:34:44.960Z,13.98
2022-10-25T09:40:12.303Z,14.17
2022-10-25T09:45:37.290Z,14.41
2022-10-25T09:51:39.212Z,14.36
2022-10-25T09:57:00.979Z,14.46
2022-10-25T10:02:25.512Z,14.50
2022-10-25T10:07:49.823Z,14.61
2022-10-25T10:13:17.392Z,14.80
2022-10-25T10:18:40.136Z,14.93
2022-10-25T10:24:05.530Z,14.84
2022-10-25T10:29:30.477Z,14.84
2022-10-25T10:34:57.570Z,14.92
2022-10-25T10:40:19.183Z,15.00
2022-10-25T10:45:49.850Z,15.09
2022-10-25T10:51:42.929Z,15.23
2022-10-25T10:57:06.439Z,15.28
2022-10-25T11:02:39.962Z,15.41
2022-10-25T11:08:07.581Z,15.39
2022-10-25T11:13:29.355Z,15.50
2022-10-25T11:19:08.608Z,15.56
2022-10-25T11:24:39.509Z,15.63
2022-10-25T11:30:18.795Z,15.60
2022-10-25T11:36:03.826Z,15.71
2022-10-25T11:41:40.771Z,15.96
2022-10-25T11:47:24.475Z,15.90
2022-10-25T11:52:56.858Z,15.96
2022-10-25T11:58:24.955Z,16.18
2022-10-25T12:04:25.450Z,16.69
2022-10-25T12:09:53.073Z,16.68
2022-10-25T12:15:40.939Z,17.05
2022-10-25T12:21:04.271Z,17.06
2022-10-25T12:26:33.335Z,17.04
2022-10-25T12:32:01.775Z,17.06
2022-10-25T12:37:37.366Z,17.05
2022-10-25T12:43:16.174Z,17.03
2022-10-25T12:49:01.311Z,16.94
2022-10-25T12:54:28.963Z,16.85
2022-10-25T13:00:09.815Z,16.74
2022-10-25T13:05:49.925Z,16.68
2022-10-25T13:11:12.555Z,16.76
2022-10-25T13:16:34.293Z,16.76
2022-10-25T13:21:55.902Z,16.76
2022-10-25T13:27:29.502Z,16.71
2022-10-25T13:33:16.143Z,16.68
2022-10-25T13:38:39.986Z,16.70
2022-10-25T13:44:04.873Z,16.72
2022-10-25T13:49:36.296Z,16.71
2022-10-25T13:54:58.951Z,16.72
2022-10-25T14:00:23.672Z,16.72
2022-10-25T14:05:54.808Z,16.72
2022-10-25T14:11:21.630Z,16.67
2022-10-25T14:17:01.943Z,16.66
2022-10-25T14:22:35.464Z,16.64
2022-10-25T14:28:14.624Z,16.61
2022-10-25T14:33:42.917Z,16.60
2022-10-25T14:39:17.568Z,16.59
2022-10-25T14:44:46.674Z,16.62
2022-10-25T14:50:14.998Z,16.61
2022-10-25T14:55:37.898Z,16.60
2022-10-25T15:01:04.800Z,16.61
2022-10-25T15:06:31.601Z,16.57
2022-10-25T15:12:11.743Z,16.55
2022-10-25T15:17:34.647Z,16.52
2022-10-25T15:23:15.162Z,16.40
2022-10-25T15:28:55.209Z,16.26
2022-10-25T15:34:17.509Z,16.27
2022-10-25T15:39:39.838Z,16.21
2022-10-25T15:45:04.411Z,16.09
2022-10-25T15:50:26.580Z,15.91
2022-10-25T15:55:49.764Z,15.77
2022-10-25T16:01:11.965Z,15.71
2022-10-25T16:06:33.936Z,15.63
2022-10-25T16:11:55.639Z,15.55
2022-10-25T16:17:17.435Z,15.46
2022-10-25T16:22:39.132Z,15.34
2022-10-25T16:28:01.405Z,15.30
2022-10-25T16:33:23.165Z,15.33
2022-10-25T16:38:44.810Z,15.28
2022-10-25T16:44:06.606Z,15.16
2022-10-25T16:49:28.283Z,15.14
2022-10-25T16:54:49.985Z,15.09
2022-10-25T17:00:12.796Z,14.97
2022-10-25T17:05:34.777Z,14.92
2022-10-25T17:10:56.437Z,14.74
2022-10-25T17:16:18.115Z,14.63
2022-10-25T17:21:39.983Z,14.51
2022-10-25T17:27:02.101Z,14.44
2022-10-25T17:32:23.969Z,14.44
2022-10-25T17:37:47.125Z,14.31
2022-10-25T17:43:09.219Z,14.19
2022-10-25T17:48:31.567Z,13.96
2022-10-25T17:53:57.675Z,14.00
2022-10-25T17:59:19.365Z,13.91
2022-10-25T18:04:53.824Z,13.99
2022-10-25T18:10:23.041Z,13.82
2022-10-25T18:15:49.278Z,13.91
2022-10-25T18:21:13.839Z,13.99
2022-10-25T18:26:35.703Z,13.99
2022-10-25T18:31:57.397Z,13.97
2022-10-25T18:37:19.188Z,13.85
2022-10-25T18:42:41.141Z,13.72
2022-10-25T18:48:02.830Z,13.61
2022-10-25T18:53:24.667Z,13.76
2022-10-25T18:58:46.652Z,13.82
2022-10-25T19:04:08.360Z,13.79
2022-10-25T19:09:30.196Z,13.89
2022-10-25T19:14:51.946Z,13.78
2022-10-25T19:20:13.786Z,13.77
2022-10-25T19:25:36.316Z,13.74
2022-10-25T19:31:04.654Z,13.60
2022-10-25T19:36:26.619Z,13.49
2022-10-25T19:41:50.289Z,13.49
2022-10-25T19:47:12.144Z,13.45
2022-10-25T19:52:35.508Z,13.45
2022-10-25T19:57:57.387Z,13.31
2022-10-25T20:03:19.154Z,13.34
2022-10-25T20:08:41.716Z,13.48
2022-10-25T20:14:04.492Z,13.53
2022-10-25T20:19:26.293Z,13.27
2022-10-25T20:24:48.001Z,13.30
2022-10-25T20:30:09.778Z,13.36
2022-10-25T20:35:35.510Z,13.32
2022-10-25T20:41:18.085Z,13.34
2022-10-25T20:46:40.184Z,13.45
2022-10-25T20:52:01.961Z,13.47
2022-10-25T20:57:23.722Z,13.47
2022-10-25T21:02:45.443Z,13.37
2022-10-25T21:08:07.374Z,13.41
2022-10-25T21:13:31.478Z,13.46
2022-10-25T21:18:53.184Z,13.25
2022-10-25T21:24:14.845Z,13.24
2022-10-25T21:29:36.815Z,12.97
2022-10-25T21:34:58.591Z,13.16
2022-10-25T21:40:20.272Z,13.31
2022-10-25T21:45:42.103Z,13.27
2022-10-25T21:51:04.005Z,13.13
2022-10-25T21:56:31.202Z,13.31
2022-10-25T22:01:53.506Z,13.37
2022-10-25T22:07:15.297Z,13.43
2022-10-25T22:12:36.962Z,13.26
2022-10-25T22:17:58.632Z,13.33
2022-10-25T22:23:20.308Z,13.14
2022-10-25T22:28:42.660Z,13.18
2022-10-25T22:34:06.532Z,13.20
2022-10-25T22:39:28.279Z,13.42
2022-10-25T22:44:49.977Z,13.45
2022-10-25T22:50:11.684Z,13.32
2022-10-25T22:55:33.353Z,13.28
2022-10-25T23:06:34.803Z,13.48
2022-10-25T23:11:56.466Z,13.51
2022-10-25T23:17:18.180Z,13.31
2022-10-25T23:22:39.864Z,13.20
2022-10-25T23:28:01.514Z,13.22
2022-10-25T23:33:23.174Z,13.14
2022-10-25T23:38:46.251Z,13.20
2022-10-25T23:44:07.935Z,13.23
2022-10-25T23:49:29.603Z,13.30
2022-10-25T23:54:52.484Z,13.27
